createdAt,value
2022-10-28T00:01:09.041Z,13.20
2022-10-28T00:03:41.372Z,13.20
2022-10-28T00:06:20.245Z,13.20
2022-10-28T00:08:47.902Z,13.30
2022-10-28T00:11:25.958Z,13.10
2022-10-28T00:13:55.246Z,13.10
2022-10-28T00:16:28.199Z,13.10
2022-10-28T00:18:55.914Z,13.10
2022-10-28T00:21:26.460Z,13.10
2022-10-28T00:23:53.948Z,13.10
2022-10-28T00:26:24.084Z,13.10
2022-10-28T00:28:53.583Z,13.10
2022-10-28T00:31:22.757Z,13.10
2022-10-28T00:33:49.877Z,13.20
2022-10-28T00:36:25.554Z,13.20
2022-10-28T00:38:54.499Z,13.20
2022-10-28T00:41:30.536Z,13.20
2022-10-28T00:44:00.481Z,13.20
2022-10-28T00:46:33.331Z,13.30
2022-10-28T00:49:16.889Z,13.30
2022-10-28T00:51:47.376Z,13.30
2022-10-28T00:54:15.939Z,13.30
2022-10-28T00:56:46.701Z,13.30
2022-10-28T00:59:26.938Z,13.30
2022-10-28T01:01:54.666Z,13.20
2022-10-28T01:04:22.530Z,13.20
2022-10-28T01:06:50.760Z,13.20
2022-10-28T01:09:17.829Z,13.20
2022-10-28T01:11:53.829Z,13.10
2022-10-28T01:14:35.987Z,13.10
2022-10-28T01:17:24.930Z,13.10
2022-10-28T01:20:13.112Z,13.10
2022-10-28T01:22:48.370Z,13.10
2022-10-28T01:25:21.280Z,13.10
2022-10-28T01:28:25.490Z,13.00
2022-10-28T01:31:20.376Z,13.00
2022-10-28T01:33:47.254Z,13.00
2022-10-28T01:36:20.011Z,13.00
2022-10-28T01:39:09.993Z,12.90
2022-10-28T01:41:48.866Z,12.90
2022-10-28T01:44:37.875Z,12.90
2022-10-28T01:47:22.135Z,12.90
2022-10-28T01:49:55.398Z,12.90
2022-10-28T01:52:26.953Z,12.80
2022-10-28T01:55:02.201Z,12.80
2022-10-28T01:57:33.193Z,12.80
2022-10-28T02:00:01.599Z,12.80
2022-10-28T02:02:33.712Z,12.80
2022-10-28T02:05:25.107Z,12.80
2022-10-28T02:07:55.855Z,12.80
2022-10-28T02:10:33.119Z,12.80
2022-10-28T02:13:07.732Z,12.70
2022-10-28T02:15:51.827Z,12.70
2022-10-28T02:18:43.201Z,12.70
2022-10-28T02:21:28.989Z,12.70
2022-10-28T02:24:10.382Z,12.70
2022-10-28T02:26:42.008Z,12.70
2022-10-28T02:29:24.515Z,12.70
2022-10-28T02:32:04.293Z,12.70
2022-10-28T02:34:33.739Z,12.70
2022-10-28T02:37:05.360Z,12.80
2022-10-28T02:39:40.959Z,12.70
2022-10-28T02:42:16.933Z,12.70
2022-10-28T02:44:53.587Z,12.70
2022-10-28T02:47:26.642Z,12.70
2022-10-28T02:49:59.296Z,12.70
2022-10-28T02:52:29.984Z,12.70
2022-10-28T02:55:04.727Z,12.70
2022-10-28T02:57:38.643Z,12.70
2022-10-28T03:00:25.686Z,12.70
2022-10-28T03:02:52.677Z,12.70
2022-10-28T03:05:20.869Z,12.70
2022-10-28T03:07:47.817Z,12.70
2022-10-28T03:10:14.886Z,12.60
2022-10-28T03:12:41.831Z,12.70
2022-10-28T03:15:09.190Z,12.70
2022-10-28T03:17:36.148Z,12.60
2022-10-28T03:20:03.307Z,12.70
2022-10-28T03:22:30.380Z,12.70
2022-10-28T03:24:57.319Z,12.70
2022-10-28T03:27:24.356Z,12.70
2022-10-28T03:29:51.316Z,12.60
2022-10-28T03:32:18.446Z,12.60
2022-10-28T03:34:47.409Z,12.60
2022-10-28T03:37:14.648Z,12.50
2022-10-28T03:39:41.601Z,12.60
2022-10-28T03:42:08.582Z,12.60
2022-10-28T03:44:35.515Z,12.60
2022-10-28T03:47:03.944Z,12.50
2022-10-28T03:49:30.971Z,12.50
2022-10-28T03:51:58.013Z,12.50
2022-10-28T03:54:24.956Z,12.50
2022-10-28T03:56:51.908Z,12.40
2022-10-28T03:59:20.281Z,12.40
2022-10-28T04:01:47.757Z,12.40
2022-10-28T04:04:14.907Z,12.40
2022-10-28T04:06:41.812Z,12.40
2022-10-28T04:09:08.700Z,12.40
2022-10-28T04:11:35.685Z,12.40
2022-10-28T04:14:02.563Z,12.30
2022-10-28T04:16:30.791Z,12.30
2022-10-28T04:18:57.959Z,12.30
2022-10-28T04:21:25.067Z,12.40
2022-10-28T04:23:51.928Z,12.30
2022-10-28T04:26:18.827Z,12.40
2022-10-28T04:28:45.755Z,12.40
2022-10-28T04:31:12.817Z,12.40
2022-10-28T04:33:39.772Z,12.40
2022-10-28T04:36:07.077Z,12.40
2022-10-28T04:42:28.439Z,12.40
2022-10-28T04:44:55.355Z,12.40
2022-10-28T04:47:22.412Z,12.40
2022-10-28T04:49:49.581Z,12.40
2022-10-28T04:52:16.633Z,12.40
2022-10-28T04:54:43.576Z,12.40
2022-10-28T04:57:10.533Z,12.40
2022-10-28T04:59:37.586Z,12.40
2022-10-28T05:02:04.680Z,12.40
2022-10-28T05:04:31.716Z,12.40
2022-10-28T05:07:19.985Z,12.40
2022-10-28T05:09:49.750Z,12.30
2022-10-28T05:12:16.696Z,12.30
2022-10-28T05:14:43.647Z,12.40
2022-10-28T05:17:11.726Z,12.30
2022-10-28T05:19:38.767Z,12.30
2022-10-28T05:22:05.745Z,12.30
2022-10-28T05:24:32.739Z,12.20
2022-10-28T05:27:00.896Z,12.20
2022-10-28T05:29:33.012Z,12.20
2022-10-28T05:32:00.698Z,12.20
2022-10-28T05:34:27.762Z,12.20
2022-10-28T05:36:54.723Z,12.20
2022-10-28T05:39:21.659Z,12.20
2022-10-28T05:41:48.684Z,12.20
2022-10-28T05:44:15.628Z,12.30
2022-10-28T05:46:42.609Z,12.30
2022-10-28T05:49:09.595Z,12.30
2022-10-28T05:51:36.543Z,12.40
2022-10-28T05:54:03.626Z,12.40
2022-10-28T05:56:30.587Z,12.40
2022-10-28T05:58:57.559Z,12.40
2022-10-28T06:01:24.659Z,12.40
2022-10-28T06:03:51.627Z,12.40
2022-10-28T06:06:18.593Z,12.40
2022-10-28T06:08:45.579Z,12.40
2022-10-28T06:11:11.085Z,12.40
2022-10-28T06:13:38.005Z,12.40
2022-10-28T06:16:05.299Z,12.40
2022-10-28T06:18:32.688Z,12.40
2022-10-28T06:20:59.733Z,12.40
2022-10-28T06:23:27.909Z,12.50
2022-10-28T06:26:00.085Z,12.50
2022-10-28T06:28:27.471Z,12.50
2022-10-28T06:31:00.084Z,12.60
2022-10-28T06:33:27.028Z,12.60
2022-10-28T06:35:57.833Z,12.60
2022-10-28T06:38:26.168Z,12.70
2022-10-28T06:40:53.320Z,12.70
2022-10-28T06:43:20.200Z,12.70
2022-10-28T06:45:52.170Z,12.70
2022-10-28T06:48:20.811Z,12.70
2022-10-28T06:50:47.831Z,12.70
2022-10-28T06:53:14.749Z,12.70
2022-10-28T06:55:41.698Z,12.70
2022-10-28T06:58:09.749Z,12.70
2022-10-28T07:00:36.783Z,12.70
2022-10-28T07:03:03.941Z,12.70
2022-10-28T07:05:31.073Z,12.70
2022-10-28T07:07:57.941Z,12.70
2022-10-28T07:10:25.065Z,12.70
2022-10-28T07:12:53.685Z,12.70
2022-10-28T07:15:21.047Z,12.70
2022-10-28T07:17:55.730Z,12.80
2022-10-28T07:20:24.126Z,12.80
2022-10-28T07:23:01.883Z,12.90
2022-10-28T07:25:30.747Z,13.10
2022-10-28T07:28:01.072Z,13.10
2022-10-28T07:30:28.680Z,13.10
2022-10-28T07:32:57.121Z,13.20
2022-10-28T07:35:24.519Z,13.30
2022-10-28T07:37:51.516Z,13.30
2022-10-28T07:40:19.517Z,13.40
2022-10-28T07:42:46.502Z,13.40
2022-10-28T07:45:13.628Z,13.50
2022-10-28T07:47:40.726Z,13.50
2022-10-28T07:50:09.403Z,13.60
2022-10-28T07:52:37.195Z,13.60
2022-10-28T07:55:05.578Z,13.70
2022-10-28T07:57:34.919Z,13.80
2022-10-28T08:00:02.179Z,13.80
2022-10-28T08:02:37.450Z,14.00
2022-10-28T08:05:04.947Z,14.20
2022-10-28T08:07:34.840Z,14.40
2022-10-28T08:10:05.579Z,14.60
2022-10-28T08:12:32.488Z,14.80
2022-10-28T08:14:59.648Z,15.00
2022-10-28T08:17:26.634Z,15.10
2022-10-28T08:19:53.577Z,15.20
2022-10-28T08:22:20.572Z,15.20
2022-10-28T08:24:47.514Z,15.20
2022-10-28T08:27:14.487Z,15.20
2022-10-28T08:29:41.446Z,15.20
2022-10-28T08:32:09.487Z,15.30
2022-10-28T08:34:39.355Z,15.30
2022-10-28T08:37:09.731Z,15.40
2022-10-28T08:39:36.781Z,15.50
2022-10-28T08:42:22.704Z,15.60
2022-10-28T08:44:52.368Z,15.70
2022-10-28T08:47:25.196Z,15.90
2022-10-28T08:49:57.528Z,15.90
2022-10-28T08:52:58.657Z,16.00
2022-10-28T08:55:46.026Z,16.10
2022-10-28T08:58:25.113Z,16.10
2022-10-28T09:00:54.953Z,16.20
2022-10-28T09:03:23.499Z,16.30
2022-10-28T09:06:07.524Z,16.30
2022-10-28T09:08:39.375Z,16.40
2022-10-28T09:11:26.336Z,16.50
2022-10-28T09:14:17.915Z,16.60
2022-10-28T09:16:44.873Z,16.70
2022-10-28T09:19:37.790Z,16.80
2022-10-28T09:22:21.017Z,16.90
2022-10-28T09:25:03.925Z,17.00
2022-10-28T09:27:57.159Z,17.20
2022-10-28T09:31:02.307Z,17.30
2022-10-28T09:33:35.288Z,17.50
2022-10-28T09:36:05.530Z,17.60
2022-10-28T09:38:39.946Z,17.70
2022-10-28T09:41:23.056Z,17.80
2022-10-28T09:44:28.176Z,18.00
2022-10-28T09:46:59.192Z,18.00
2022-10-28T09:49:31.326Z,18.10
2022-10-28T09:52:21.505Z,18.10
2022-10-28T09:54:53.665Z,18.20
2022-10-28T09:57:30.241Z,18.30
2022-10-28T09:59:57.600Z,18.40
2022-10-28T10:02:32.450Z,18.50
2022-10-28T10:05:02.063Z,18.50
2022-10-28T10:07:38.663Z,18.60
2022-10-28T10:10:21.913Z,18.80
2022-10-28T10:12:52.522Z,19.00
2022-10-28T10:15:37.402Z,19.10
2022-10-28T10:18:07.008Z,19.30
2022-10-28T10:20:58.745Z,19.40
2022-10-28T10:23:33.261Z,19.50
2022-10-28T10:26:08.094Z,19.70
2022-10-28T10:28:46.901Z,19.70
2022-10-28T10:31:26.390Z,19.90
2022-10-28T10:33:55.820Z,20.00
2022-10-28T10:36:28.792Z,20.10
2022-10-28T10:38:58.287Z,20.30
2022-10-28T10:41:42.982Z,20.50
2022-10-28T10:44:32.233Z,20.70
2022-10-28T10:47:06.462Z,20.90
2022-10-28T10:49:35.335Z,21.10
2022-10-28T10:52:10.520Z,21.20
2022-10-28T10:54:38.307Z,21.40
2022-10-28T10:57:20.740Z,21.70
2022-10-28T10:59:50.778Z,22.10
2022-10-28T11:02:35.838Z,22.50
2022-10-28T11:05:06.537Z,22.90
2022-10-28T11:07:33.978Z,23.20
2022-10-28T11:10:01.998Z,23.40
2022-10-28T11:13:02.919Z,23.60
2022-10-28T11:15:31.323Z,23.80
2022-10-28T11:18:17.412Z,23.90
2022-10-28T11:21:01.476Z,23.90
2022-10-28T11:23:37.579Z,23.90
2022-10-28T11:26:13.103Z,23.80
2022-10-28T11:29:08.164Z,23.70
2022-10-28T11:32:05.756Z,23.50
2022-10-28T11:34:56.448Z,23.40
2022-10-28T11:37:38.433Z,23.30
2022-10-28T11:40:37.340Z,23.20
2022-10-28T11:43:07.253Z,23.10
2022-10-28T11:45:51.313Z,23.00
2022-10-28T11:48:33.274Z,22.90
2022-10-28T11:55:55.039Z,22.70
2022-10-28T11:58:29.519Z,22.70
2022-10-28T12:02:12.011Z,22.80
2022-10-28T12:05:05.518Z,23.00
2022-10-28T12:07:47.506Z,23.30
2022-10-28T12:15:01.868Z,23.70
2022-10-28T12:18:02.521Z,23.80
2022-10-28T12:20:39.319Z,23.80
2022-10-28T12:23:13.184Z,23.70
2022-10-28T12:25:43.883Z,23.60
2022-10-28T12:28:37.553Z,23.50
2022-10-28T12:31:08.374Z,23.40
2022-10-28T12:33:41.042Z,23.30
2022-10-28T12:36:12.915Z,23.20
2022-10-28T12:38:58.349Z,23.20
2022-10-28T12:41:47.421Z,23.10
2022-10-28T12:44:20.009Z,23.00
2022-10-28T12:47:11.613Z,22.90
2022-10-28T12:50:05.531Z,22.90
2022-10-28T12:52:35.466Z,22.80
2022-10-28T12:55:11.406Z,22.80
2022-10-28T12:57:40.591Z,22.80
2022-10-28T13:00:19.723Z,22.80
2022-10-28T13:03:03.325Z,22.80
2022-10-28T13:05:45.848Z,22.80
2022-10-28T13:12:53.021Z,22.80
2022-10-28T13:15:34.096Z,22.80
2022-10-28T13:18:28.419Z,22.80
2022-10-28T13:21:13.808Z,22.80
2022-10-28T13:23:55.672Z,22.90
2022-10-28T13:26:31.644Z,23.00
2022-10-28T13:29:02.056Z,23.20
2022-10-28T13:32:01.876Z,23.20
2022-10-28T13:34:40.250Z,23.30
2022-10-28T13:37:19.103Z,23.50
2022-10-28T13:40:34.212Z,23.50
2022-10-28T13:43:01.844Z,23.60
2022-10-28T13:45:59.088Z,23.70
2022-10-28T13:48:29.246Z,26.30
2022-10-28T13:51:11.461Z,23.70
2022-10-28T13:53:56.750Z,23.70
2022-10-28T13:56:28.486Z,23.70
2022-10-28T13:58:58.923Z,23.70
2022-10-28T14:01:56.706Z,23.70
2022-10-28T14:04:36.089Z,23.70
2022-10-28T14:07:12.702Z,23.70
2022-10-28T14:13:49.402Z,23.50
2022-10-28T14:16:38.855Z,23.30
2022-10-28T14:19:11.925Z,23.20
2022-10-28T14:22:02.648Z,23.10
2022-10-28T14:24:34.287Z,22.90
2022-10-28T14:27:08.077Z,22.90
2022-10-28T14:29:48.038Z,22.80
2022-10-28T14:32:33.327Z,22.80
2022-10-28T14:35:14.426Z,22.70
2022-10-28T14:37:59.340Z,22.60
2022-10-28T14:40:51.412Z,22.50
2022-10-28T14:43:51.419Z,22.30
2022-10-28T14:46:38.191Z,22.20
2022-10-28T14:49:14.410Z,22.00
2022-10-28T14:51:42.557Z,21.80
2022-10-28T14:54:14.498Z,21.70
2022-10-28T14:56:41.834Z,21.60
2022-10-28T14:59:41.166Z,21.50
2022-10-28T15:02:11.039Z,21.40
2022-10-28T15:04:40.983Z,21.20
2022-10-28T15:07:15.289Z,21.10
2022-10-28T15:09:43.951Z,21.20
2022-10-28T15:12:10.822Z,21.10
2022-10-28T15:14:39.930Z,21.00
2022-10-28T15:17:15.189Z,20.90
2022-10-28T15:19:43.311Z,20.80
2022-10-28T15:22:16.982Z,20.70
2022-10-28T15:25:00.048Z,20.60
2022-10-28T15:27:32.225Z,20.50
2022-10-28T15:29:59.778Z,20.40
2022-10-28T15:32:30.052Z,20.40
2022-10-28T15:34:57.444Z,20.30
2022-10-28T15:37:34.771Z,20.20
2022-10-28T15:40:32.654Z,20.20
2022-10-28T15:43:03.459Z,20.20
2022-10-28T15:45:35.182Z,20.30
2022-10-28T15:48:13.703Z,20.40
2022-10-28T15:50:40.887Z,20.40
2022-10-28T15:53:10.659Z,20.50
2022-10-28T15:58:35.883Z,20.60
2022-10-28T16:01:03.099Z,20.70
2022-10-28T16:03:48.523Z,20.70
2022-10-28T16:06:33.861Z,20.70
2022-10-28T16:09:09.683Z,20.80
2022-10-28T16:11:41.442Z,20.80
2022-10-28T16:14:28.505Z,20.80
2022-10-28T16:16:56.957Z,20.80
2022-10-28T16:19:35.502Z,20.80
2022-10-28T16:22:02.551Z,20.80
2022-10-28T16:24:29.513Z,20.80
2022-10-28T16:27:20.044Z,20.80
2022-10-28T16:29:47.462Z,20.70
2022-10-28T16:32:16.352Z,20.70
2022-10-28T16:34:43.701Z,20.70
2022-10-28T16:37:26.270Z,20.60
2022-10-28T16:39:53.640Z,20.60
2022-10-28T16:42:22.148Z,20.60
2022-10-28T16:44:49.924Z,20.60
2022-10-28T16:47:19.826Z,20.50
2022-10-28T16:49:54.287Z,20.40
2022-10-28T16:52:31.401Z,20.30
2022-10-28T16:54:58.669Z,20.20
2022-10-28T16:57:26.455Z,20.10
2022-10-28T16:59:54.222Z,20.00
2022-10-28T17:02:25.882Z,19.80
2022-10-28T17:04:52.967Z,19.70
2022-10-28T17:07:19.940Z,19.60
2022-10-28T17:09:47.057Z,19.50
2022-10-28T17:16:26.065Z,19.40
2022-10-28T17:18:53.008Z,19.40
2022-10-28T17:25:38.476Z,19.30
2022-10-28T17:29:21.833Z,19.30
2022-10-28T17:31:48.922Z,19.30
2022-10-28T17:34:15.897Z,19.40
2022-10-28T17:41:02.530Z,19.40
2022-10-28T17:43:29.596Z,19.50
2022-10-28T17:46:07.663Z,19.50
2022-10-28T17:48:34.817Z,19.50
2022-10-28T17:52:01.007Z,19.40
2022-10-28T17:54:28.969Z,19.30
2022-10-28T17:56:56.606Z,19.20
2022-10-28T17:59:23.679Z,19.10
2022-10-28T18:01:50.713Z,19.10
2022-10-28T18:04:17.907Z,19.00
2022-10-28T18:06:44.912Z,19.10
2022-10-28T18:09:14.920Z,19.10
2022-10-28T18:11:41.902Z,19.10
2022-10-28T18:14:08.892Z,19.10
2022-10-28T18:16:37.140Z,19.10
2022-10-28T18:19:06.127Z,19.10
2022-10-28T18:21:33.462Z,19.10
2022-10-28T18:24:04.055Z,19.10
2022-10-28T18:26:33.165Z,19.00
2022-10-28T18:29:03.904Z,19.00
2022-10-28T18:31:33.232Z,18.90
2022-10-28T18:34:01.819Z,18.80
2022-10-28T18:36:34.096Z,18.70
2022-10-28T18:39:03.255Z,18.60
2022-10-28T18:41:31.697Z,18.40
2022-10-28T18:44:01.038Z,18.30
2022-10-28T18:46:29.920Z,18.10
2022-10-28T18:48:57.658Z,18.00
2022-10-28T18:51:25.464Z,17.80
2022-10-28T18:53:52.520Z,17.80
2022-10-28T18:56:21.670Z,17.70
2022-10-28T19:03:20.552Z,17.90
2022-10-28T19:05:48.312Z,18.00
2022-10-28T19:08:15.733Z,18.10
2022-10-28T19:10:42.810Z,18.10
2022-10-28T19:13:09.802Z,18.20
2022-10-28T19:15:42.121Z,18.20
2022-10-28T19:18:09.107Z,18.20
2022-10-28T19:20:36.069Z,18.20
2022-10-28T19:23:03.100Z,18.10
2022-10-28T19:25:30.210Z,18.00
2022-10-28T19:27:58.953Z,17.80
2022-10-28T19:30:26.359Z,17.70
2022-10-28T19:32:53.579Z,17.60
2022-10-28T19:35:20.799Z,17.50
2022-10-28T19:37:47.737Z,17.40
2022-10-28T19:40:14.823Z,17.20
2022-10-28T19:42:41.933Z,17.20
2022-10-28T19:45:09.681Z,17.10
2022-10-28T19:47:36.657Z,17.10
2022-10-28T19:50:03.802Z,16.90
2022-10-28T19:52:30.760Z,16.90
2022-10-28T19:54:57.730Z,16.80
2022-10-28T19:57:24.677Z,16.70
2022-10-28T20:00:42.163Z,16.70
2022-10-28T20:03:09.210Z,16.70
2022-10-28T20:05:36.197Z,16.70
2022-10-28T20:08:03.136Z,16.80
2022-10-28T20:10:30.116Z,16.90
2022-10-28T20:12:57.345Z,17.00
2022-10-28T20:15:24.488Z,17.10
2022-10-28T20:17:51.453Z,17.20
2022-10-28T20:20:18.531Z,17.20
2022-10-28T20:22:45.452Z,17.20
2022-10-28T20:25:12.449Z,17.20
2022-10-28T20:27:39.374Z,17.10
2022-10-28T20:30:07.135Z,17.00
2022-10-28T20:32:36.390Z,16.90
2022-10-28T20:35:03.429Z,16.80
2022-10-28T20:37:30.394Z,16.70
2022-10-28T20:39:58.293Z,16.60
2022-10-28T20:42:26.761Z,16.50
2022-10-28T20:44:53.738Z,16.40
2022-10-28T20:47:20.845Z,16.40
2022-10-28T20:49:47.835Z,16.30
2022-10-28T20:52:16.729Z,16.20
2022-10-28T20:54:43.773Z,16.10
2022-10-28T20:57:10.724Z,16.20
2022-10-28T20:59:37.739Z,16.20
2022-10-28T21:02:04.850Z,16.10
2022-10-28T21:04:32.687Z,16.10
2022-10-28T21:06:59.653Z,16.10
2022-10-28T21:09:26.622Z,16.00
2022-10-28T21:11:53.599Z,16.00
2022-10-28T21:14:21.982Z,16.00
2022-10-28T21:16:52.032Z,16.10
2022-10-28T21:19:19.079Z,16.10
2022-10-28T21:21:46.030Z,16.10
2022-10-28T21:24:12.968Z,16.00
2022-10-28T21:26:39.935Z,16.00
2022-10-28T21:29:06.916Z,16.00
2022-10-28T21:31:33.912Z,15.90
2022-10-28T21:34:03.070Z,15.80
2022-10-28T21:36:32.835Z,15.80
2022-10-28T21:38:59.783Z,15.70
2022-10-28T21:41:26.778Z,15.80
2022-10-28T21:43:54.488Z,15.70
2022-10-28T21:46:22.988Z,15.70
2022-10-28T21:48:50.038Z,15.60
2022-10-28T21:51:17.677Z,15.60
2022-10-28T21:58:10.165Z,15.60
2022-10-28T22:00:37.079Z,15.50
2022-10-28T22:03:03.948Z,15.50
2022-10-28T22:05:31.107Z,15.50
2022-10-28T22:07:58.142Z,15.40
2022-10-28T22:10:25.269Z,15.40
2022-10-28T22:12:52.257Z,15.40
2022-10-28T22:15:19.300Z,15.40
2022-10-28T22:17:46.245Z,15.30
2022-10-28T22:20:13.386Z,15.30
2022-10-28T22:23:05.967Z,15.30
2022-10-28T22:25:33.065Z,15.20
2022-10-28T22:27:59.993Z,15.20
2022-10-28T22:30:27.099Z,15.20
2022-10-28T22:32:54.522Z,15.20
2022-10-28T22:35:21.735Z,15.10
2022-10-28T22:37:48.790Z,15.10
2022-10-28T22:40:15.833Z,15.10
2022-10-28T22:42:42.806Z,15.10
2022-10-28T22:45:10.350Z,15.10
2022-10-28T22:47:37.784Z,15.10
2022-10-28T22:50:06.248Z,15.10
2022-10-28T22:52:33.502Z,15.20
2022-10-28T22:55:00.976Z,15.20
2022-10-28T22:57:28.931Z,15.20
2022-10-28T22:59:56.386Z,15.20
2022-10-28T23:02:23.909Z,15.20
2022-10-28T23:04:51.083Z,15.30
2022-10-28T23:07:18.423Z,15.40
2022-10-28T23:09:45.577Z,15.50
2022-10-28T23:12:12.524Z,15.70
2022-10-28T23:19:01.379Z,16.10
2022-10-28T23:21:28.959Z,16.50
2022-10-28T23:23:58.497Z,16.60
2022-10-28T23:26:27.720Z,16.70
2022-10-28T23:28:57.688Z,16.70
2022-10-28T23:31:25.464Z,16.70
2022-10-28T23:33:54.071Z,16.60
2022-10-28T23:36:21.454Z,16.70
2022-10-28T23:38:48.399Z,16.70
2022-10-28T23:41:18.807Z,16.70
2022-10-28T23:43:46.767Z,16.70
2022-10-28T23:46:14.064Z,16.60
2022-10-28T23:48:41.614Z,16.60
2022-10-28T23:51:08.771Z,16.60
2022-10-28T23:53:35.826Z,16.60
2022-10-28T23:56:02.832Z,16.60
2022-10-28T23:58:29.756Z,16.60
